Time;durP1;ratioP1;P1;durP2;ratioP2;P2;SDS_P1;SDS_P2;PMS_P1;PMS_P2;Temp;Humidity;BMP_temperature;BMP_pressure;BME280_temperature;BME280_humidity;BME280_pressure;Samples;Min_cycle;Max_cycle;Signal;HPM_P1;HPM_P2
2022/06/20 00:02:25;;;;;;;19.83;6.50;;;22.30;86.90;;;;;;5022519;28;20186;-85
2022/06/20 00:04:53;;;;;;;16.57;7.63;;;22.30;87.00;;;;;;5037744;28;20179;-86
2022/06/20 00:07:19;;;;;;;18.83;6.17;;;22.20;86.40;;;;;;5035843;28;20190;-85
2022/06/20 00:09:45;;;;;;;16.83;6.43;;;22.20;86.70;;;;;;5022553;28;20265;-86
2022/06/20 00:12:21;;;;;;;21.23;7.17;;;22.30;86.50;;;;;;5021217;28;20191;-85
2022/06/20 00:14:48;;;;;;;15.03;6.43;;;22.30;86.10;;;;;;5021419;28;20230;-85
2022/06/20 00:17:14;;;;;;;14.77;6.10;;;22.30;85.80;;;;;;5021061;28;20207;-86
2022/06/20 00:19:42;;;;;;;12.13;6.60;;;22.30;85.90;;;;;;5022305;28;20336;-85
2022/06/20 00:22:11;;;;;;;17.10;5.90;;;22.30;85.80;;;;;;5021645;28;20221;-86
2022/06/20 00:24:37;;;;;;;14.47;6.50;;;22.30;86.20;;;;;;5022224;28;20242;-86
2022/06/20 00:27:06;;;;;;;17.50;6.20;;;22.30;86.10;;;;;;5021859;28;20636;-87
2022/06/20 00:29:37;;;;;;;19.50;6.73;;;22.20;85.70;;;;;;5021766;28;20609;-86
2022/06/20 00:32:05;;;;;;;18.97;6.67;;;22.20;85.70;;;;;;5023920;28;20262;-86
2022/06/20 00:34:31;;;;;;;16.03;6.87;;;22.20;85.90;;;;;;5022610;28;20663;-86
2022/06/20 00:36:56;;;;;;;14.50;6.53;;;22.20;85.90;;;;;;5023190;28;20222;-86
2022/06/20 00:39:22;;;;;;;24.87;7.67;;;22.20;86.00;;;;;;5026008;28;20734;-86
2022/06/20 00:41:49;;;;;;;16.47;6.77;;;22.20;85.90;;;;;;5028738;28;20179;-86
2022/06/20 00:44:24;;;;;;;16.57;5.97;;;22.10;85.80;;;;;;5027566;28;20274;-87
2022/06/20 00:46:54;;;;;;;15.87;6.23;;;22.10;85.80;;;;;;5031836;28;20175;-84
2022/06/20 00:49:22;;;;;;;16.20;6.20;;;22.10;86.10;;;;;;5040365;28;20191;-86
2022/06/20 00:51:56;;;;;;;18.57;6.73;;;22.10;85.40;;;;;;5027275;28;20185;-86
2022/06/20 00:54:36;;;;;;;14.40;6.50;;;22.10;87.00;;;;;;5022254;28;20167;-85
2022/06/20 00:57:25;;;;;;;14.77;6.30;;;22.10;88.60;;;;;;5021398;28;20221;-85
2022/06/20 01:00:14;;;;;;;14.70;6.43;;;22.00;90.40;;;;;;5022182;28;20262;-85
2022/06/20 01:02:47;;;;;;;20.90;7.13;;;21.90;89.70;;;;;;5020516;28;20191;-85
2022/06/20 01:05:27;;;;;;;17.97;6.90;;;21.80;90.10;;;;;;5021006;28;20625;-86
2022/06/20 01:08:02;;;;;;;26.67;7.30;;;21.70;89.30;;;;;;5021706;28;20183;-86
2022/06/20 01:10:32;;;;;;;12.80;6.60;;;21.70;89.50;;;;;;5020013;28;20574;-85
2022/06/20 01:13:02;;;;;;;19.27;6.63;;;21.70;90.80;;;;;;5018135;28;20179;-85
2022/06/20 01:15:35;;;;;;;21.63;7.23;;;21.70;91.10;;;;;;5019339;28;20739;-85
2022/06/20 01:18:03;;;;;;;13.97;6.57;;;21.60;92.00;;;;;;5019813;28;20811;-86
2022/06/20 01:20:35;;;;;;;22.13;6.97;;;21.60;91.40;;;;;;5019509;28;20679;-85
2022/06/20 01:23:23;;;;;;;13.27;6.53;;;21.60;90.80;;;;;;5022648;28;20633;-86
2022/06/20 01:26:27;;;;;;;19.77;6.70;;;21.50;90.70;;;;;;5020130;28;20167;-85
2022/06/20 01:28:58;;;;;;;18.57;6.37;;;21.50;91.90;;;;;;5019802;28;20178;-86
2022/06/20 01:31:25;;;;;;;14.90;6.23;;;21.40;91.60;;;;;;5020434;28;20173;-86
2022/06/20 01:33:52;;;;;;;18.00;6.60;;;21.40;91.70;;;;;;5021011;28;20178;-85
2022/06/20 01:39:07;;;;;;;15.87;6.57;;;21.30;91.10;;;;;;5024803;28;20206;-86
2022/06/20 01:44:19;;;;;;;15.10;6.67;;;21.20;91.50;;;;;;5021211;28;20233;-85
2022/06/20 01:46:45;;;;;;;13.70;6.43;;;21.20;91.50;;;;;;5019678;28;20722;-85
2022/06/20 01:49:15;;;;;;;19.83;7.73;;;21.10;91.50;;;;;;5019038;28;20224;-85
2022/06/20 01:51:51;;;;;;;19.50;7.00;;;21.10;91.50;;;;;;5019218;28;20288;-85
2022/06/20 01:54:24;;;;;;;20.90;6.93;;;21.00;91.70;;;;;;5018538;28;20250;-85
2022/06/20 01:56:52;;;;;;;17.40;7.30;;;21.00;91.90;;;;;;5019256;28;20198;-86
2022/06/20 01:59:35;;;;;;;14.97;7.00;;;21.00;91.80;;;;;;5018664;28;20301;-85
2022/06/20 02:02:02;;;;;;;18.27;7.77;;;20.90;91.90;;;;;;5020103;28;20220;-85
2022/06/20 02:04:33;;;;;;;16.93;7.37;;;20.90;92.00;;;;;;5019467;28;20171;-85
2022/06/20 02:07:01;;;;;;;16.43;7.70;;;20.90;92.70;;;;;;5019238;28;20162;-85
2022/06/20 02:09:27;;;;;;;17.13;7.43;;;20.80;92.30;;;;;;5024057;28;20195;-86
2022/06/20 02:11:53;;;;;;;20.10;7.50;;;20.80;92.20;;;;;;5038388;28;20180;-87
2022/06/20 02:14:28;;;;;;;12.63;6.37;;;20.80;92.30;;;;;;5035211;28;20202;-86
2022/06/20 02:17:02;;;;;;;22.30;7.30;;;20.70;92.20;;;;;;5023924;28;20204;-86
2022/06/20 02:19:34;;;;;;;15.77;6.27;;;20.60;92.10;;;;;;5022346;28;20208;-86
2022/06/20 02:22:04;;;;;;;18.83;7.40;;;20.60;92.20;;;;;;5020336;28;20593;-86
2022/06/20 02:24:43;;;;;;;15.47;6.43;;;20.60;92.20;;;;;;5027116;28;20644;-86
2022/06/20 02:27:32;;;;;;;20.23;7.30;;;20.60;92.20;;;;;;5017868;28;20187;-86
2022/06/20 02:29:59;;;;;;;15.87;6.70;;;20.50;92.00;;;;;;5018095;28;20229;-86
2022/06/20 02:32:33;;;;;;;14.87;6.17;;;20.50;92.30;;;;;;5019355;28;20181;-85
2022/06/20 02:34:59;;;;;;;16.80;7.20;;;20.50;92.10;;;;;;5018542;28;20176;-86
2022/06/20 02:37:26;;;;;;;17.20;6.53;;;20.50;92.40;;;;;;5018007;28;20264;-85
2022/06/20 02:39:57;;;;;;;17.20;7.07;;;20.50;92.20;;;;;;5017759;28;20204;-86
2022/06/20 02:42:57;;;;;;;17.93;6.87;;;20.50;92.00;;;;;;5019465;28;20285;-86
2022/06/20 02:45:25;;;;;;;18.67;6.93;;;20.50;92.20;;;;;;5017409;28;20637;-85
2022/06/20 02:47:57;;;;;;;14.00;6.53;;;20.50;92.20;;;;;;5017225;28;20297;-86
2022/06/20 02:50:28;;;;;;;15.57;6.53;;;20.50;91.90;;;;;;5019525;28;20203;-85
2022/06/20 02:53:12;;;;;;;14.67;6.13;;;20.50;92.00;;;;;;5019958;28;20169;-86
2022/06/20 02:55:38;;;;;;;12.03;6.40;;;20.50;92.20;;;;;;5018221;28;20327;-86
2022/06/20 02:58:15;;;;;;;14.87;6.70;;;20.50;92.30;;;;;;5018869;28;20214;-85
2022/06/20 03:00:52;;;;;;;14.03;6.70;;;20.40;92.40;;;;;;5018007;28;20684;-85
2022/06/20 03:03:33;;;;;;;20.17;6.50;;;20.40;92.60;;;;;;5018152;28;20247;-86
2022/06/20 03:05:59;;;;;;;18.73;6.70;;;20.40;92.60;;;;;;5020123;28;20184;-85
2022/06/20 03:08:25;;;;;;;19.37;7.30;;;20.40;92.50;;;;;;5019992;28;20188;-85
2022/06/20 03:10:53;;;;;;;15.90;7.20;;;20.40;92.60;;;;;;5020444;28;20202;-85
2022/06/20 03:13:21;;;;;;;19.50;6.83;;;20.40;92.40;;;;;;5018688;28;20192;-85
2022/06/20 03:15:49;;;;;;;19.60;7.13;;;20.40;92.30;;;;;;5019658;28;20547;-85
2022/06/20 03:18:17;;;;;;;16.20;6.60;;;20.40;92.10;;;;;;5017398;28;20567;-84
2022/06/20 03:20:44;;;;;;;16.20;5.60;;;20.40;92.10;;;;;;5018071;28;20205;-85
2022/06/20 03:23:27;;;;;;;13.60;6.30;;;20.40;92.00;;;;;;5017431;28;20544;-85
2022/06/20 03:25:59;;;;;;;17.33;6.10;;;20.40;91.90;;;;;;5019920;28;20517;-85
2022/06/20 03:28:26;;;;;;;15.63;7.47;;;20.40;91.90;;;;;;5017403;28;20642;-85
2022/06/20 03:30:52;;;;;;;17.37;6.20;;;20.40;91.70;;;;;;5018116;28;20209;-85
2022/06/20 03:33:21;;;;;;;15.10;6.47;;;20.40;91.90;;;;;;5018711;28;20193;-86
2022/06/20 03:35:54;;;;;;;18.23;7.13;;;20.40;91.80;;;;;;5019815;28;20176;-85
2022/06/20 03:38:21;;;;;;;14.60;6.13;;;20.40;91.70;;;;;;5019122;28;20198;-85
2022/06/20 03:40:47;;;;;;;13.60;6.17;;;20.50;92.20;;;;;;5019649;28;20198;-86
2022/06/20 03:43:18;;;;;;;16.07;5.50;;;20.40;91.50;;;;;;5019733;28;20234;-85
2022/06/20 03:45:49;;;;;;;15.87;6.43;;;20.40;91.60;;;;;;5023996;28;20173;-86
2022/06/20 03:48:21;;;;;;;18.57;6.50;;;20.50;91.70;;;;;;5022876;28;20173;-86
2022/06/20 03:51:02;;;;;;;14.23;6.53;;;20.50;91.60;;;;;;5022269;28;20577;-87
2022/06/20 03:53:41;;;;;;;13.43;6.10;;;20.50;92.00;;;;;;5022656;28;20201;-84
2022/06/20 03:56:16;;;;;;;11.23;6.53;;;20.50;92.00;;;;;;5019889;28;20227;-86
2022/06/20 03:58:51;;;;;;;16.93;6.27;;;20.50;91.70;;;;;;5020636;28;20686;-85
2022/06/20 04:01:49;;;;;;;15.00;7.07;;;20.60;91.40;;;;;;5022142;28;20175;-86
2022/06/20 04:04:38;;;;;;;11.67;5.80;;;20.60;91.70;;;;;;5018109;28;20214;-86
2022/06/20 04:07:09;;;;;;;15.50;6.13;;;20.60;91.50;;;;;;5016718;28;20233;-87
2022/06/20 04:12:39;;;;;;;9.03;5.70;;;20.80;91.20;;;;;;5019918;28;20564;-86
2022/06/20 04:15:17;;;;;;;14.03;5.80;;;20.80;90.90;;;;;;5017695;28;20565;-86
2022/06/20 04:20:48;;;;;;;11.93;5.60;;;20.90;90.40;;;;;;5036904;28;20223;-86
2022/06/20 04:23:22;;;;;;;12.67;5.60;;;20.90;90.30;;;;;;5018937;28;20185;-86
2022/06/20 04:26:00;;;;;;;13.73;6.00;;;21.00;90.60;;;;;;5019061;28;20657;-86
2022/06/20 04:28:38;;;;;;;19.90;6.00;;;21.00;90.40;;;;;;5018319;28;20643;-86
2022/06/20 04:31:47;;;;;;;13.97;5.10;;;21.10;90.50;;;;;;5019103;28;20637;-85
2022/06/20 04:34:28;;;;;;;15.50;6.57;;;21.10;90.60;;;;;;5036851;28;20193;-86
2022/06/20 04:36:59;;;;;;;16.77;5.80;;;21.10;90.90;;;;;;5036797;28;20703;-87
2022/06/20 04:39:37;;;;;;;14.60;6.03;;;21.10;91.20;;;;;;5024925;28;20606;-87
2022/06/20 04:42:17;;;;;;;15.83;6.70;;;21.20;91.20;;;;;;5017839;28;20224;-87
2022/06/20 04:45:11;;;;;;;9.80;5.50;;;21.20;91.10;;;;;;5017799;28;20229;-83
2022/06/20 04:47:43;;;;;;;13.50;5.63;;;21.30;91.30;;;;;;5019564;28;20671;-81
2022/06/20 04:50:19;;;;;;;18.33;6.10;;;21.30;91.10;;;;;;5022516;28;20296;-85
2022/06/20 04:52:47;;;;;;;13.40;5.70;;;21.40;90.90;;;;;;5024029;28;20213;-86
2022/06/20 04:55:16;;;;;;;12.33;6.13;;;21.50;91.20;;;;;;5024550;28;20702;-85
2022/06/20 04:57:42;;;;;;;17.13;5.73;;;21.50;90.70;;;;;;5024272;28;20202;-85
2022/06/20 05:00:17;;;;;;;13.60;5.27;;;21.60;91.30;;;;;;5024999;28;20206;-86
2022/06/20 05:02:43;;;;;;;16.77;6.23;;;21.80;91.50;;;;;;5023140;28;20282;-83
2022/06/20 05:05:16;;;;;;;20.03;7.20;;;21.90;91.60;;;;;;5025536;28;20175;-83
2022/06/20 05:07:41;;;;;;;10.00;5.23;;;22.10;90.40;;;;;;5037566;28;20182;-84
2022/06/20 05:10:11;;;;;;;7.47;5.40;;;22.30;90.30;;;;;;5030918;28;20296;-85
2022/06/20 05:12:59;;;;;;;10.83;5.33;;;22.60;90.20;;;;;;5022404;28;20170;-84
2022/06/20 05:15:40;;;;;;;12.70;6.33;;;22.80;89.40;;;;;;5020638;28;20194;-83
2022/06/20 05:18:18;;;;;;;14.87;6.23;;;23.10;89.70;;;;;;5020994;28;20202;-83
2022/06/20 05:20:46;;;;;;;12.40;5.40;;;23.20;90.00;;;;;;5021439;28;20289;-83
2022/06/20 05:23:17;;;;;;;11.33;6.23;;;23.30;88.70;;;;;;5022818;28;20172;-84
2022/06/20 05:25:43;;;;;;;10.40;5.60;;;23.40;88.60;;;;;;5031727;28;20633;-81
2022/06/20 05:28:15;;;;;;;19.80;6.53;;;23.50;90.00;;;;;;5026265;28;20175;-83
2022/06/20 05:30:42;;;;;;;12.67;6.10;;;23.50;88.80;;;;;;5026543;28;20198;-87
2022/06/20 05:33:45;;;;;;;10.03;6.23;;;23.60;89.20;;;;;;5019691;28;20189;-86
2022/06/20 05:36:11;;;;;;;12.43;6.30;;;23.70;89.30;;;;;;5019877;28;20687;-87
2022/06/20 05:38:41;;;;;;;15.03;5.93;;;23.80;89.40;;;;;;5019797;28;20246;-86
2022/06/20 05:41:11;;;;;;;13.77;6.70;;;23.80;89.00;;;;;;5019084;28;20167;-87
2022/06/20 05:43:36;;;;;;;16.10;6.73;;;23.80;89.60;;;;;;5019994;28;20179;-87
2022/06/20 05:46:10;;;;;;;14.47;6.37;;;23.80;89.10;;;;;;5022188;28;20599;-86
2022/06/20 05:48:40;;;;;;;16.17;5.77;;;23.80;88.80;;;;;;5020330;28;20621;-86
2022/06/20 05:51:09;;;;;;;16.03;5.97;;;23.80;88.80;;;;;;5019972;28;20194;-87
2022/06/20 05:53:46;;;;;;;14.60;6.50;;;23.80;89.20;;;;;;5018593;28;20646;-87
2022/06/20 05:56:50;;;;;;;14.27;6.13;;;23.90;89.30;;;;;;5019186;28;20612;-86
2022/06/20 05:59:28;;;;;;;15.37;6.63;;;23.90;87.90;;;;;;5017714;28;20757;-86
2022/06/20 06:02:27;;;;;;;10.87;5.40;;;24.00;87.80;;;;;;5020117;28;20204;-85
2022/06/20 06:05:28;;;;;;;10.90;5.53;;;24.00;86.40;;;;;;5018730;28;20190;-87
2022/06/20 06:08:15;;;;;;;14.03;5.23;;;24.00;87.20;;;;;;5020125;28;20679;-87
2022/06/20 06:11:02;;;;;;;10.27;5.43;;;24.00;87.90;;;;;;5019467;28;20195;-87
2022/06/20 06:13:53;;;;;;;10.33;5.93;;;24.00;86.70;;;;;;5020189;28;20182;-86
2022/06/20 06:19:12;;;;;;;11.50;5.50;;;24.10;87.40;;;;;;5024522;28;20746;-85
2022/06/20 06:21:38;;;;;;;13.03;4.90;;;24.20;84.80;;;;;;5023961;28;20168;-87
2022/06/20 06:24:09;;;;;;;13.43;5.60;;;24.40;84.30;;;;;;5024986;28;20206;-86
2022/06/20 06:26:35;;;;;;;11.93;5.00;;;24.60;83.40;;;;;;5037245;28;20179;-86
2022/06/20 06:29:03;;;;;;;8.97;4.63;;;24.60;85.20;;;;;;5033245;28;20265;-85
2022/06/20 06:31:35;;;;;;;13.53;5.33;;;24.60;82.70;;;;;;5022325;28;20183;-87
2022/06/20 06:34:13;;;;;;;12.13;4.33;;;24.60;82.00;;;;;;5021774;28;20269;-87
2022/06/20 06:36:43;;;;;;;9.13;4.97;;;24.60;82.20;;;;;;5023335;28;20194;-87
2022/06/20 06:39:24;;;;;;;10.80;4.17;;;24.60;82.10;;;;;;5024852;28;20570;-86
2022/06/20 06:41:56;;;;;;;12.93;4.20;;;24.70;83.00;;;;;;5023475;28;20178;-85
2022/06/20 06:44:44;;;;;;;9.37;4.30;;;24.80;81.70;;;;;;5025374;28;20182;-84
2022/06/20 06:47:38;;;;;;;12.27;3.93;;;24.80;82.10;;;;;;5023269;28;20250;-87
2022/06/20 06:50:24;;;;;;;9.67;4.47;;;24.70;80.50;;;;;;5023258;28;20209;-86
2022/06/20 06:52:58;;;;;;;11.83;4.27;;;24.60;82.20;;;;;;5025081;28;20230;-86
2022/06/20 06:55:38;;;;;;;15.90;4.53;;;24.60;82.40;;;;;;5025386;28;20174;-86
2022/06/20 06:58:10;;;;;;;9.43;3.80;;;24.60;84.20;;;;;;5024731;28;20278;-87
2022/06/20 07:00:44;;;;;;;16.83;4.07;;;24.70;82.30;;;;;;5024010;28;20196;-87
2022/06/20 07:03:26;;;;;;;10.30;4.77;;;24.70;82.00;;;;;;5024940;28;20198;-84
2022/06/20 07:06:06;;;;;;;12.00;5.40;;;24.80;82.50;;;;;;5028220;28;20272;-87
2022/06/20 07:08:38;;;;;;;11.87;4.93;;;24.90;83.80;;;;;;5023005;28;20183;-86
2022/06/20 07:11:21;;;;;;;10.27;4.40;;;25.00;82.80;;;;;;5023308;28;20187;-87
2022/06/20 07:14:03;;;;;;;13.03;4.47;;;25.00;82.20;;;;;;5022162;28;20187;-86
2022/06/20 07:16:32;;;;;;;8.63;3.93;;;25.10;80.70;;;;;;5024157;28;20167;-87
2022/06/20 07:18:59;;;;;;;8.43;4.20;;;25.00;79.50;;;;;;5024197;28;20213;-86
2022/06/20 07:21:29;;;;;;;11.00;3.60;;;25.00;79.50;;;;;;5024792;28;20174;-86
2022/06/20 07:24:02;;;;;;;12.17;4.83;;;25.00;80.80;;;;;;5018832;28;20184;-84
2022/06/20 07:26:34;;;;;;;10.30;4.17;;;25.20;80.90;;;;;;5017690;28;20189;-84
2022/06/20 07:29:11;;;;;;;11.67;4.47;;;25.30;80.30;;;;;;5016439;28;20248;-84
2022/06/20 07:31:43;;;;;;;10.67;4.30;;;25.40;81.00;;;;;;5022101;28;20181;-85
2022/06/20 07:34:28;;;;;;;8.53;3.97;;;25.50;79.90;;;;;;5025476;28;20210;-84
2022/06/20 07:37:18;;;;;;;8.40;4.07;;;25.50;79.50;;;;;;5027633;28;20189;-84
2022/06/20 07:39:59;;;;;;;12.07;4.23;;;25.50;80.90;;;;;;5033842;28;20212;-83
2022/06/20 07:42:43;;;;;;;7.97;3.73;;;25.50;79.90;;;;;;5025948;28;20180;-85
2022/06/20 07:45:18;;;;;;;10.13;4.90;;;25.40;80.40;;;;;;5025436;28;20185;-85
2022/06/20 07:47:53;;;;;;;9.47;4.30;;;25.30;80.10;;;;;;5024326;28;20226;-84
2022/06/20 07:50:28;;;;;;;10.27;4.07;;;25.20;79.60;;;;;;5025884;28;20207;-85
2022/06/20 07:53:00;;;;;;;10.13;4.40;;;25.10;80.90;;;;;;5023059;28;20179;-85
2022/06/20 07:55:30;;;;;;;14.30;5.20;;;25.10;82.00;;;;;;5023761;28;20231;-85
2022/06/20 07:58:09;;;;;;;16.57;4.53;;;25.20;81.50;;;;;;5022064;28;20590;-85
2022/06/20 08:00:49;;;;;;;7.33;3.90;;;25.40;82.70;;;;;;5023184;28;20265;-85
2022/06/20 08:03:21;;;;;;;8.57;3.50;;;25.50;83.60;;;;;;5023107;28;20270;-85
2022/06/20 08:05:55;;;;;;;11.33;3.83;;;25.60;79.40;;;;;;5023568;28;20234;-85
2022/06/20 08:08:32;;;;;;;10.93;4.07;;;25.50;80.90;;;;;;5023610;28;20185;-85
2022/06/20 08:11:03;;;;;;;8.97;4.10;;;25.30;78.30;;;;;;5023947;28;20572;-85
2022/06/20 08:13:37;;;;;;;11.33;4.40;;;25.30;79.30;;;;;;5023881;28;20180;-84
2022/06/20 08:16:15;;;;;;;8.37;4.20;;;25.20;80.00;;;;;;5023595;28;20216;-86
2022/06/20 08:18:41;;;;;;;11.33;3.93;;;25.40;84.80;;;;;;5026848;28;20211;-86
2022/06/20 08:21:28;;;;;;;9.63;4.13;;;25.50;82.50;;;;;;5031100;28;20178;-86
2022/06/20 08:24:01;;;;;;;9.67;4.30;;;25.60;80.00;;;;;;5028362;28;20579;-85
2022/06/20 08:26:33;;;;;;;8.10;4.23;;;25.50;79.10;;;;;;5025106;28;20162;-84
2022/06/20 08:29:04;;;;;;;11.83;3.90;;;25.50;80.30;;;;;;5022029;28;20243;-85
2022/06/20 08:31:40;;;;;;;10.03;4.50;;;25.60;81.80;;;;;;5026707;28;20178;-85
2022/06/20 08:34:17;;;;;;;11.33;4.63;;;25.60;80.70;;;;;;5037873;28;20166;-85
2022/06/20 08:37:08;;;;;;;11.67;4.10;;;25.60;83.10;;;;;;5038338;28;20181;-84
2022/06/20 08:39:38;;;;;;;7.33;4.23;;;25.40;81.40;;;;;;5031091;28;20194;-85
2022/06/20 08:42:12;;;;;;;11.73;5.00;;;25.30;81.50;;;;;;5024409;28;20179;-85
2022/06/20 08:44:57;;;;;;;8.30;4.80;;;25.30;82.90;;;;;;5024682;28;20196;-86
2022/06/20 08:47:48;;;;;;;7.07;4.30;;;25.40;84.00;;;;;;5026125;28;20175;-86
2022/06/20 08:50:38;;;;;;;10.10;4.73;;;25.50;83.60;;;;;;5024080;28;20203;-85
2022/06/20 08:53:50;;;;;;;8.00;4.87;;;25.40;82.50;;;;;;5025580;28;20176;-85
2022/06/20 08:56:51;;;;;;;14.30;4.47;;;25.20;81.80;;;;;;5027313;28;20186;-86
2022/06/20 08:59:26;;;;;;;9.17;4.40;;;25.00;83.60;;;;;;5019486;28;20648;-85
2022/06/20 09:02:17;;;;;;;8.57;4.53;;;25.00;82.40;;;;;;5024394;28;20176;-85
2022/06/20 09:05:18;;;;;;;14.83;4.77;;;25.00;81.50;;;;;;5026799;28;20319;-85
2022/06/20 09:07:58;;;;;;;10.93;4.20;;;25.20;82.50;;;;;;5026435;28;20191;-84
2022/06/20 09:10:38;;;;;;;8.60;4.10;;;25.40;80.50;;;;;;5025967;28;20567;-85
2022/06/20 09:13:10;;;;;;;11.27;4.47;;;25.70;82.70;;;;;;5024547;28;20678;-86
2022/06/20 09:15:47;;;;;;;10.40;4.50;;;25.80;80.80;;;;;;5024237;28;20195;-85
2022/06/20 09:18:35;;;;;;;13.90;4.50;;;26.00;82.10;;;;;;5024949;28;20203;-85
2022/06/20 09:21:10;;;;;;;6.83;4.10;;;26.40;81.70;;;;;;5025749;28;20196;-86
2022/06/20 09:23:39;;;;;;;11.70;3.93;;;26.80;81.00;;;;;;5026837;28;20197;-85
2022/06/20 09:26:05;;;;;;;6.60;4.10;;;26.80;78.40;;;;;;5025310;28;20577;-85
2022/06/20 09:28:52;;;;;;;8.90;3.77;;;26.90;82.50;;;;;;5025046;28;20212;-86
2022/06/20 09:31:42;;;;;;;12.40;4.17;;;27.10;78.80;;;;;;5026409;28;20166;-86
2022/06/20 09:34:29;;;;;;;12.10;4.00;;;27.20;78.40;;;;;;5024578;28;20175;-86
2022/06/20 09:37:31;;;;;;;10.17;3.90;;;27.10;81.20;;;;;;5025908;28;20179;-84
2022/06/20 09:40:22;;;;;;;8.97;3.87;;;27.00;78.90;;;;;;5023285;28;20201;-86
2022/06/20 09:43:06;;;;;;;12.03;3.77;;;26.90;77.40;;;;;;5032606;28;20174;-84
2022/06/20 09:46:09;;;;;;;7.70;4.00;;;26.70;76.10;;;;;;5037727;28;20162;-84
2022/06/20 09:48:42;;;;;;;9.47;4.10;;;26.90;79.40;;;;;;5038565;28;20213;-84
2022/06/20 09:51:45;;;;;;;8.77;4.40;;;27.10;78.90;;;;;;5039248;28;20202;-85
2022/06/20 09:54:16;;;;;;;12.70;4.53;;;27.40;78.30;;;;;;5038749;28;20159;-85
2022/06/20 09:57:01;;;;;;;11.63;3.77;;;27.80;74.60;;;;;;5039676;28;20171;-85
2022/06/20 09:59:35;;;;;;;9.80;3.60;;;28.00;73.30;;;;;;5038522;28;20230;-86
2022/06/20 10:02:06;;;;;;;9.07;2.97;;;28.10;74.10;;;;;;5038695;28;20155;-84
2022/06/20 10:04:57;;;;;;;7.80;3.23;;;28.20;71.80;;;;;;5037873;28;20163;-84
2022/06/20 10:07:47;;;;;;;9.03;3.03;;;28.30;71.80;;;;;;5039033;28;20171;-86
2022/06/20 10:10:21;;;;;;;6.87;3.03;;;28.40;70.50;;;;;;5029900;28;20223;-86
2022/06/20 10:12:52;;;;;;;6.67;2.60;;;28.50;70.70;;;;;;5026580;28;20190;-86
2022/06/20 10:15:37;;;;;;;7.87;2.57;;;28.60;71.30;;;;;;5021584;28;20703;-86
2022/06/20 10:18:51;;;;;;;7.10;2.63;;;28.70;68.50;;;;;;5019174;28;20194;-86
2022/06/20 10:21:29;;;;;;;6.13;2.77;;;28.90;67.40;;;;;;5018736;28;20246;-87
2022/06/20 10:23:58;;;;;;;5.97;3.00;;;29.00;67.50;;;;;;5019747;28;20175;-86
2022/06/20 10:26:53;;;;;;;4.97;2.67;;;29.10;64.70;;;;;;5020524;28;20184;-85
2022/06/20 10:29:42;;;;;;;6.80;2.47;;;29.20;65.20;;;;;;5021991;28;20187;-87
2022/06/20 10:32:18;;;;;;;4.27;2.70;;;29.20;65.90;;;;;;5021102;28;20159;-86
2022/06/20 10:34:44;;;;;;;10.33;2.80;;;29.50;71.00;;;;;;5023923;28;20495;-85
2022/06/20 10:37:33;;;;;;;7.17;2.60;;;29.60;66.20;;;;;;5019642;28;20203;-86
2022/06/20 10:40:37;;;;;;;10.17;2.57;;;29.80;65.70;;;;;;5028521;28;20213;-85
2022/06/20 10:43:10;;;;;;;6.50;2.60;;;29.90;65.80;;;;;;5038055;28;20178;-86
2022/06/20 10:45:49;;;;;;;12.90;2.30;;;30.00;64.10;;;;;;5021063;28;20644;-87
2022/06/20 10:48:33;;;;;;;5.70;2.33;;;30.00;65.30;;;;;;5018817;28;20246;-86
2022/06/20 10:51:27;;;;;;;7.37;2.53;;;30.00;62.90;;;;;;5020226;28;20284;-87
2022/06/20 10:54:29;;;;;;;6.27;2.50;;;30.10;66.20;;;;;;5019564;28;20643;-86
2022/06/20 10:57:19;;;;;;;6.53;2.50;;;30.30;62.90;;;;;;5019144;28;20218;-86
2022/06/20 11:00:02;;;;;;;5.53;2.30;;;30.40;64.70;;;;;;5020227;28;20201;-87
2022/06/20 11:02:51;;;;;;;6.73;2.43;;;30.50;64.80;;;;;;5021515;28;20163;-85
2022/06/20 11:05:38;;;;;;;4.63;2.50;;;30.40;62.20;;;;;;5020668;28;20199;-87
2022/06/20 11:08:29;;;;;;;6.63;2.27;;;30.10;61.70;;;;;;5019512;28;20190;-87
2022/06/20 11:11:07;;;;;;;5.40;2.73;;;30.00;61.90;;;;;;5019620;28;20230;-87
2022/06/20 11:14:08;;;;;;;6.60;2.47;;;30.20;62.50;;;;;;5020865;28;20171;-87
2022/06/20 11:16:58;;;;;;;8.23;2.67;;;30.30;64.70;;;;;;5021922;28;20229;-86
2022/06/20 11:19:43;;;;;;;5.00;2.47;;;30.50;65.90;;;;;;5026898;28;20233;-86
2022/06/20 11:22:26;;;;;;;4.83;2.93;;;30.70;62.70;;;;;;5029442;28;20179;-86
2022/06/20 11:25:22;;;;;;;5.27;2.13;;;30.70;64.70;;;;;;5020422;28;20175;-86
2022/06/20 11:27:54;;;;;;;7.37;2.40;;;31.00;62.40;;;;;;5019855;28;20199;-86
2022/06/20 11:30:44;;;;;;;6.30;2.43;;;31.30;64.20;;;;;;5019746;28;20221;-85
2022/06/20 11:36:18;;;;;;;6.87;2.57;;;31.20;59.90;;;;;;5023079;28;20248;-87
2022/06/20 11:38:47;;;;;;;6.30;2.50;;;31.00;62.80;;;;;;5022010;28;20242;-87
2022/06/20 11:41:23;;;;;;;4.07;2.43;;;31.20;66.40;;;;;;5023248;28;20179;-88
2022/06/20 11:44:15;;;;;;;7.57;2.50;;;31.40;62.40;;;;;;5019171;28;20188;-87
2022/06/20 11:47:02;;;;;;;8.30;2.53;;;31.70;65.80;;;;;;5021993;28;20179;-87
2022/06/20 11:49:46;;;;;;;3.53;2.57;;;31.90;63.50;;;;;;5025859;28;20200;-87
2022/06/20 11:52:27;;;;;;;6.60;2.47;;;32.00;62.40;;;;;;5017890;28;20170;-86
2022/06/20 11:55:46;;;;;;;7.30;2.60;;;32.30;63.40;;;;;;5017557;28;20179;-86
2022/06/20 11:58:57;;;;;;;7.03;2.70;;;32.40;61.30;;;;;;5020090;28;20284;-86
2022/06/20 12:01:32;;;;;;;6.03;2.43;;;32.30;57.80;;;;;;5025763;28;20202;-86
2022/06/20 12:04:24;;;;;;;9.07;2.93;;;32.10;58.80;;;;;;5023545;28;20573;-86
2022/06/20 12:06:58;;;;;;;4.60;2.40;;;31.90;58.40;;;;;;5024707;28;20173;-87
2022/06/20 12:09:36;;;;;;;7.27;2.43;;;31.80;64.10;;;;;;5024763;28;20199;-87
2022/06/20 12:12:22;;;;;;;3.83;2.50;;;31.90;58.40;;;;;;5025505;28;20178;-87
2022/06/20 12:15:16;;;;;;;6.07;2.70;;;31.90;61.10;;;;;;5024074;28;20251;-87
2022/06/20 12:17:56;;;;;;;8.87;2.70;;;31.90;60.90;;;;;;5022470;28;20210;-86
2022/06/20 12:23:41;;;;;;;5.57;2.13;;;32.00;60.50;;;;;;5023151;28;20173;-86
2022/06/20 12:26:12;;;;;;;3.73;2.47;;;32.30;59.10;;;;;;5022259;28;20180;-86
2022/06/20 12:28:44;;;;;;;5.50;2.90;;;32.40;59.80;;;;;;5025129;28;20540;-86
2022/06/20 12:31:22;;;;;;;4.37;2.23;;;32.40;57.70;;;;;;5021533;28;20200;-85
2022/06/20 12:34:14;;;;;;;5.30;2.47;;;32.50;58.80;;;;;;5020658;28;20226;-86
2022/06/20 12:36:59;;;;;;;7.17;2.97;;;32.40;58.90;;;;;;5019037;28;20178;-86
2022/06/20 12:39:42;;;;;;;4.97;2.43;;;32.50;60.60;;;;;;5018822;28;20218;-86
2022/06/20 12:42:14;;;;;;;7.20;2.73;;;32.40;58.60;;;;;;5018695;28;20387;-86
2022/06/20 12:44:54;;;;;;;5.93;2.53;;;32.60;59.20;;;;;;5018771;28;20179;-87
2022/06/20 12:48:05;;;;;;;5.03;2.80;;;32.50;57.50;;;;;;5024222;28;20201;-87
2022/06/20 12:50:50;;;;;;;5.83;2.40;;;32.50;57.90;;;;;;5045722;28;20196;-86
2022/06/20 12:53:37;;;;;;;5.70;2.70;;;32.60;58.40;;;;;;5029406;28;20171;-86
2022/06/20 12:56:10;;;;;;;5.20;2.40;;;32.70;57.80;;;;;;5019983;28;20277;-86
2022/06/20 12:58:39;;;;;;;5.30;2.50;;;32.60;58.30;;;;;;5020902;28;20213;-87
2022/06/20 13:01:44;;;;;;;6.57;2.47;;;32.50;61.40;;;;;;5020015;28;20190;-86
2022/06/20 13:04:25;;;;;;;8.47;2.83;;;32.40;56.50;;;;;;5022698;28;20179;-87
2022/06/20 13:07:06;;;;;;;7.43;2.47;;;32.10;58.10;;;;;;5023315;28;20196;-86
2022/06/20 13:10:25;;;;;;;4.80;2.60;;;32.10;58.60;;;;;;5024318;28;20248;-86
2022/06/20 13:13:08;;;;;;;6.60;2.70;;;32.10;58.80;;;;;;5026585;28;20184;-87
2022/06/20 13:15:56;;;;;;;4.53;2.60;;;32.30;59.10;;;;;;5023622;28;20193;-86
2022/06/20 13:18:43;;;;;;;8.00;2.60;;;32.30;56.60;;;;;;5024820;28;20210;-86
2022/06/20 13:21:23;;;;;;;5.30;2.70;;;32.00;57.50;;;;;;5024795;28;20185;-84
2022/06/20 13:24:01;;;;;;;6.07;2.50;;;32.30;58.90;;;;;;5029712;28;20173;-85
2022/06/20 13:26:35;;;;;;;6.40;2.57;;;32.40;56.60;;;;;;5026636;28;20184;-87
2022/06/20 13:29:43;;;;;;;5.73;2.60;;;32.40;57.90;;;;;;5023484;28;20203;-86
2022/06/20 13:32:28;;;;;;;6.13;2.80;;;32.70;60.90;;;;;;5022743;28;20211;-86
2022/06/20 13:35:28;;;;;;;5.50;2.50;;;32.90;59.30;;;;;;5022580;28;20182;-85
2022/06/20 13:38:21;;;;;;;9.87;2.60;;;32.80;55.90;;;;;;5012988;28;20219;-88
2022/06/20 13:41:11;;;;;;;9.80;3.13;;;32.60;54.30;;;;;;5023284;28;20214;-87
2022/06/20 13:43:59;;;;;;;4.87;2.53;;;32.40;55.60;;;;;;5024410;28;20163;-86
2022/06/20 13:46:50;;;;;;;6.17;2.60;;;32.60;60.90;;;;;;5021873;28;20175;-87
2022/06/20 13:49:41;;;;;;;5.43;2.30;;;32.70;55.50;;;;;;5028198;28;20199;-85
2022/06/20 13:52:33;;;;;;;5.40;2.50;;;32.60;55.80;;;;;;5018611;28;20215;-86
2022/06/20 13:55:15;;;;;;;6.23;2.43;;;32.40;54.20;;;;;;5019838;28;20634;-85
2022/06/20 13:58:03;;;;;;;4.57;2.50;;;32.30;54.80;;;;;;5021547;28;20192;-85
2022/06/20 14:00:32;;;;;;;5.80;2.23;;;32.20;54.80;;;;;;5020709;28;20208;-85